Time;durP1;ratioP1;P1;durP2;ratioP2;P2;SDS_P1;SDS_P2;PMS_P1;PMS_P2;Temp;Humidity;BMP_temperature;BMP_pressure;BME280_temperature;BME280_humidity;BME280_pressure;Samples;Min_cycle;Max_cycle;Signal;HPM_P1;HPM_P2
2024/04/16 00:01:00;;;;;;;;;;;;;;;7.53;70.68;99092.00;4570056;26;19935;-72
2024/04/16 00:03:00;;;;;;;;;;;;;;;7.72;70.91;99107.03;4570380;26;19927;-72
2024/04/16 00:05:01;;;;;;;;;;;;;;;7.58;70.53;99109.19;4570424;26;19931;-72
2024/04/16 00:07:01;;;;;;;;;;;;;;;7.60;70.55;99104.56;4570349;26;19960;-72
2024/04/16 00:09:02;;;;;;;;;;;;;;;7.73;69.80;99093.56;4573201;26;19934;-72
2024/04/16 00:11:02;;;;;;;;;;;;;;;7.74;69.54;99081.13;4570539;26;20379;-72
2024/04/16 00:13:04;;;;;;;;;;;;;;;7.72;69.16;99091.06;4570499;26;20049;-72
2024/04/16 00:15:04;;;;;;;;;;;;;;;7.61;69.38;99098.25;4538182;26;20494;-75
2024/04/16 00:17:04;;;;;;;;;;;;;;;7.80;68.83;99089.31;4570879;26;19942;-72
2024/04/16 00:19:05;;;;;;;;;;;;;;;7.87;68.76;99086.88;4571300;26;19935;-72
2024/04/16 00:21:05;;;;;;;;;;;;;;;7.74;68.61;99095.25;4569589;26;19928;-72
2024/04/16 00:23:05;;;;;;;;;;;;;;;7.79;68.54;99086.81;4570520;26;19985;-71
2024/04/16 00:25:08;;;;;;;;;;;;;;;7.89;68.28;99087.56;4570006;25;20396;-72
2024/04/16 00:27:08;;;;;;;;;;;;;;;7.90;68.38;99093.72;4570305;26;19927;-73
2024/04/16 00:29:08;;;;;;;;;;;;;;;7.80;68.17;99093.81;4570177;26;20078;-72
2024/04/16 00:31:09;;;;;;;;;;;;;;;7.93;68.33;99091.63;4569046;26;19935;-72
2024/04/16 00:33:09;;;;;;;;;;;;;;;7.89;68.20;99090.25;4569863;26;19927;-73
2024/04/16 00:35:10;;;;;;;;;;;;;;;8.09;67.76;99082.13;4538154;26;19928;-71
2024/04/16 00:37:11;;;;;;;;;;;;;;;7.94;67.59;99074.63;4570436;26;19935;-73
2024/04/16 00:39:12;;;;;;;;;;;;;;;8.06;67.73;99077.94;4537338;26;19939;-72
2024/04/16 00:41:12;;;;;;;;;;;;;;;7.99;67.05;99060.88;4569423;26;19927;-72
2024/04/16 00:43:16;;;;;;;;;;;;;;;8.08;67.26;99062.63;4536681;26;19968;-73
2024/04/16 00:45:16;;;;;;;;;;;;;;;8.30;67.20;99062.31;4569638;26;20004;-72
2024/04/16 00:47:16;;;;;;;;;;;;;;;8.21;67.23;99059.59;4570138;26;19931;-71
2024/04/16 00:49:17;;;;;;;;;;;;;;;8.27;67.26;99069.63;4587141;26;19937;-72
2024/04/16 00:51:17;;;;;;;;;;;;;;;8.13;66.86;99064.81;4580591;26;19934;-71
2024/04/16 00:53:18;;;;;;;;;;;;;;;8.32;66.81;99052.34;4537581;26;19928;-71
2024/04/16 00:55:18;;;;;;;;;;;;;;;8.31;66.75;99048.84;4570609;26;19972;-72
2024/04/16 00:57:19;;;;;;;;;;;;;;;8.23;67.17;99051.44;4580049;26;20256;-72
2024/04/16 00:59:19;;;;;;;;;;;;;;;8.12;67.11;99037.38;4569676;26;19938;-72
2024/04/16 01:01:19;;;;;;;;;;;;;;;8.33;66.76;99032.69;4536925;26;19935;-73
2024/04/16 01:03:20;;;;;;;;;;;;;;;8.17;66.98;99025.44;4571370;26;19972;-72
2024/04/16 01:05:20;;;;;;;;;;;;;;;8.41;66.61;99028.28;4571959;26;19928;-71
2024/04/16 01:07:21;;;;;;;;;;;;;;;8.28;66.77;99018.03;4570480;26;20013;-71
2024/04/16 01:09:21;;;;;;;;;;;;;;;8.28;66.67;99036.69;4570414;26;19932;-73
2024/04/16 01:11:25;;;;;;;;;;;;;;;8.20;66.84;99033.97;4574248;26;19931;-72
2024/04/16 01:13:26;;;;;;;;;;;;;;;8.18;67.03;99016.44;4575621;26;19983;-72
2024/04/16 01:15:26;;;;;;;;;;;;;;;8.19;66.77;99026.09;4573974;26;19928;-72
2024/04/16 01:17:27;;;;;;;;;;;;;;;8.39;66.42;99026.78;4573783;26;19927;-71
2024/04/16 01:19:27;;;;;;;;;;;;;;;8.13;67.24;99019.56;4571783;26;19934;-71
2024/04/16 01:21:28;;;;;;;;;;;;;;;8.27;66.79;99020.84;4571866;26;19927;-71
2024/04/16 01:23:28;;;;;;;;;;;;;;;8.40;66.89;99009.81;4573081;26;19969;-71
2024/04/16 01:25:30;;;;;;;;;;;;;;;8.31;66.31;99008.09;4573169;25;19927;-71
2024/04/16 01:27:30;;;;;;;;;;;;;;;8.27;66.22;99019.03;4573357;26;20412;-72
2024/04/16 01:29:30;;;;;;;;;;;;;;;8.22;66.55;99028.47;4572302;26;19927;-72
2024/04/16 01:31:31;;;;;;;;;;;;;;;8.30;66.71;99019.72;4535586;26;19939;-72
2024/04/16 01:33:31;;;;;;;;;;;;;;;8.36;66.89;99016.44;4568742;26;19976;-72
2024/04/16 01:35:32;;;;;;;;;;;;;;;8.49;66.06;99013.38;4569121;26;19940;-71
2024/04/16 01:37:32;;;;;;;;;;;;;;;8.33;66.61;99014.06;4569052;26;20408;-72
2024/04/16 01:39:32;;;;;;;;;;;;;;;8.46;66.00;99016.31;4553073;25;19954;-72
2024/04/16 01:41:33;;;;;;;;;;;;;;;8.44;65.87;99003.16;4560256;26;20269;-72
2024/04/16 01:43:33;;;;;;;;;;;;;;;8.27;65.22;98997.72;4568371;26;19939;-72
2024/04/16 01:45:34;;;;;;;;;;;;;;;8.60;64.67;98999.81;4551424;26;19934;-70
2024/04/16 01:47:34;;;;;;;;;;;;;;;8.52;64.71;98986.44;4537924;26;20478;-72
2024/04/16 01:49:35;;;;;;;;;;;;;;;8.45;65.19;98988.84;4551002;25;19927;-72
2024/04/16 01:51:35;;;;;;;;;;;;;;;8.36;65.07;98989.78;4564582;26;20252;-72
2024/04/16 01:53:35;;;;;;;;;;;;;;;8.41;65.61;98996.31;4566503;26;20458;-72
2024/04/16 01:55:35;;;;;;;;;;;;;;;8.51;65.79;99006.06;4538141;26;19935;-71
2024/04/16 01:57:36;;;;;;;;;;;;;;;8.60;65.68;98993.66;4538570;26;20420;-72
2024/04/16 01:59:36;;;;;;;;;;;;;;;8.81;64.89;98996.75;4538310;26;19973;-72
2024/04/16 02:01:36;;;;;;;;;;;;;;;8.38;64.83;98991.31;4537394;26;19928;-72
2024/04/16 02:03:37;;;;;;;;;;;;;;;8.57;65.49;98984.13;4541006;26;19936;-72
2024/04/16 02:05:38;;;;;;;;;;;;;;;8.59;65.07;98979.47;4541361;26;20265;-72
2024/04/16 02:07:38;;;;;;;;;;;;;;;8.58;64.78;98981.31;4541553;26;19928;-72
2024/04/16 02:09:39;;;;;;;;;;;;;;;8.44;64.09;98987.19;4548261;26;19928;-72
2024/04/16 02:11:44;;;;;;;;;;;;;;;8.68;64.15;98975.03;4557034;26;19928;-72
2024/04/16 02:13:44;;;;;;;;;;;;;;;8.40;64.31;98981.34;4546464;26;19979;-71
2024/04/16 02:15:44;;;;;;;;;;;;;;;8.35;64.48;98980.13;4541151;26;19935;-71
2024/04/16 02:17:45;;;;;;;;;;;;;;;8.33;65.79;98979.44;4546767;26;19928;-72
2024/04/16 02:19:46;;;;;;;;;;;;;;;8.20;65.26;98980.72;4561003;26;19928;-72
2024/04/16 02:21:46;;;;;;;;;;;;;;;8.64;65.34;98979.84;4541968;26;20264;-71
2024/04/16 02:23:48;;;;;;;;;;;;;;;8.42;65.70;98971.38;4540626;26;19927;-72
2024/04/16 02:25:48;;;;;;;;;;;;;;;8.24;65.08;98974.06;4540134;26;19934;-72
2024/04/16 02:27:49;;;;;;;;;;;;;;;8.41;64.95;98980.34;4539867;26;20264;-72
2024/04/16 02:29:49;;;;;;;;;;;;;;;8.49;64.51;98968.94;4541187;26;20004;-74
2024/04/16 02:31:49;;;;;;;;;;;;;;;8.23;64.80;98959.09;4540140;26;19935;-73
2024/04/16 02:33:50;;;;;;;;;;;;;;;8.21;64.52;98968.22;4552081;26;19995;-72
2024/04/16 02:35:50;;;;;;;;;;;;;;;8.31;64.08;98965.47;4539152;26;19936;-72
2024/04/16 02:37:51;;;;;;;;;;;;;;;8.41;63.68;98960.84;4571873;26;19927;-72
2024/04/16 02:39:51;;;;;;;;;;;;;;;8.27;63.03;98972.91;4560415;25;20441;-71
2024/04/16 02:41:52;;;;;;;;;;;;;;;8.43;62.61;98954.41;4567463;26;19934;-72
2024/04/16 02:43:53;;;;;;;;;;;;;;;8.53;62.49;98959.63;4512946;26;19940;-72
2024/04/16 02:45:53;;;;;;;;;;;;;;;8.58;62.33;98957.34;4580602;26;19926;-73
2024/04/16 02:47:53;;;;;;;;;;;;;;;8.33;61.97;98960.81;4559934;26;19932;-72
2024/04/16 02:49:54;;;;;;;;;;;;;;;8.68;61.15;98953.72;4528350;26;19974;-74
2024/04/16 02:51:54;;;;;;;;;;;;;;;8.61;61.48;98958.00;4548614;26;20450;-73
2024/04/16 02:53:55;;;;;;;;;;;;;;;8.61;61.35;98947.34;4581590;26;19956;-73
2024/04/16 02:56:02;;;;;;;;;;;;;;;8.48;61.30;98945.97;4585933;26;19999;-73
2024/04/16 02:58:03;;;;;;;;;;;;;;;8.65;60.25;98951.38;4589521;26;19927;-73
2024/04/16 03:00:04;;;;;;;;;;;;;;;8.35;60.69;98958.81;4558306;26;19928;-71
2024/04/16 03:02:05;;;;;;;;;;;;;;;8.60;60.25;98959.00;4589250;26;19939;-73
2024/04/16 03:04:05;;;;;;;;;;;;;;;8.59;61.09;98966.16;4577056;26;19927;-72
2024/04/16 03:06:06;;;;;;;;;;;;;;;8.60;61.40;98970.50;4570267;26;19934;-71
2024/04/16 03:08:06;;;;;;;;;;;;;;;8.68;60.50;98969.72;4570695;26;19996;-72
2024/04/16 03:10:07;;;;;;;;;;;;;;;8.64;61.18;98973.66;4570421;25;19927;-72
2024/04/16 03:12:07;;;;;;;;;;;;;;;8.41;61.24;98979.50;4569383;26;19995;-72
2024/04/16 03:14:07;;;;;;;;;;;;;;;8.37;60.60;98984.31;4569598;26;20433;-72
2024/04/16 03:16:08;;;;;;;;;;;;;;;8.78;60.24;98981.09;4569611;26;19983;-72
2024/04/16 03:18:08;;;;;;;;;;;;;;;8.62;60.45;98980.97;4570192;26;19934;-71
2024/04/16 03:20:08;;;;;;;;;;;;;;;8.48;60.33;98974.41;4569439;25;19931;-72
2024/04/16 03:22:09;;;;;;;;;;;;;;;8.35;60.35;98975.66;4569692;26;19951;-72
2024/04/16 03:24:09;;;;;;;;;;;;;;;8.77;59.17;98983.88;4579569;25;19920;-72
2024/04/16 03:26:10;;;;;;;;;;;;;;;8.52;59.53;98994.44;4571318;25;19938;-72
2024/04/16 03:28:10;;;;;;;;;;;;;;;8.43;58.69;98988.16;4571355;26;19939;-73
2024/04/16 03:30:11;;;;;;;;;;;;;;;8.68;58.78;98988.38;4569926;25;20397;-73
2024/04/16 03:32:12;;;;;;;;;;;;;;;8.46;58.92;98993.19;4568993;26;19955;-71
2024/04/16 03:34:12;;;;;;;;;;;;;;;8.58;58.77;98985.78;4570265;26;19932;-71
2024/04/16 03:36:12;;;;;;;;;;;;;;;8.45;59.13;98991.53;4570976;26;19927;-72
2024/04/16 03:38:12;;;;;;;;;;;;;;;8.36;59.40;98987.13;4569814;26;20375;-72
2024/04/16 03:40:13;;;;;;;;;;;;;;;8.42;59.20;98986.50;4569957;25;19984;-71
2024/04/16 03:42:13;;;;;;;;;;;;;;;8.39;59.87;98987.66;4536460;26;19932;-72
2024/04/16 03:44:13;;;;;;;;;;;;;;;8.32;60.36;98993.75;4569732;26;19935;-72
2024/04/16 03:46:13;;;;;;;;;;;;;;;8.66;59.35;98993.00;4569997;26;19934;-73
2024/04/16 03:48:15;;;;;;;;;;;;;;;8.57;60.36;98998.28;4587175;26;19931;-73
2024/04/16 03:50:15;;;;;;;;;;;;;;;8.34;60.87;99005.94;4549068;26;19928;-72
2024/04/16 03:52:17;;;;;;;;;;;;;;;8.21;60.52;99008.16;4536282;26;20006;-71
2024/04/16 03:54:17;;;;;;;;;;;;;;;8.28;60.57;99007.41;4569108;26;19951;-71
2024/04/16 03:56:18;;;;;;;;;;;;;;;8.22;60.30;99012.50;4569466;26;19935;-71
2024/04/16 03:58:18;;;;;;;;;;;;;;;8.19;60.57;99011.00;4569046;26;20369;-72
2024/04/16 04:02:37;;;;;;;;;;;;;;;8.54;60.07;99019.91;4568695;26;19942;-71
2024/04/16 04:04:38;;;;;;;;;;;;;;;8.28;60.20;99011.88;4569511;26;19955;-72
2024/04/16 04:06:38;;;;;;;;;;;;;;;8.12;60.25;99018.75;4569491;26;19933;-72
2024/04/16 04:08:38;;;;;;;;;;;;;;;8.27;60.39;99023.50;4569622;26;19935;-72
2024/04/16 04:10:39;;;;;;;;;;;;;;;8.14;60.39;99031.06;4569202;25;19927;-72
2024/04/16 04:12:39;;;;;;;;;;;;;;;8.07;60.29;99031.69;4568929;26;19934;-72
2024/04/16 04:14:40;;;;;;;;;;;;;;;8.46;59.75;99027.81;4568866;26;20276;-73
2024/04/16 04:16:40;;;;;;;;;;;;;;;8.48;59.14;99036.53;4568729;26;20328;-71
2024/04/16 04:18:40;;;;;;;;;;;;;;;8.02;60.07;99012.66;4536553;26;19928;-72
2024/04/16 04:20:41;;;;;;;;;;;;;;;8.15;59.69;99017.59;4568927;25;19936;-72
2024/04/16 04:22:41;;;;;;;;;;;;;;;7.96;60.08;99024.75;4568478;26;19935;-73
2024/04/16 04:24:42;;;;;;;;;;;;;;;7.88;60.37;99022.03;4568114;25;19935;-71
2024/04/16 04:26:42;;;;;;;;;;;;;;;8.03;60.13;99018.84;4568711;26;19927;-72
2024/04/16 04:28:42;;;;;;;;;;;;;;;8.04;60.32;99021.34;4570251;26;19935;-72
2024/04/16 04:30:42;;;;;;;;;;;;;;;8.19;60.19;99013.66;4568760;25;19928;-71
2024/04/16 04:32:49;;;;;;;;;;;;;;;8.16;59.84;99018.44;4568133;26;19928;-72
2024/04/16 04:34:49;;;;;;;;;;;;;;;7.95;60.46;99031.06;4536873;26;19928;-72
2024/04/16 04:36:49;;;;;;;;;;;;;;;8.05;60.08;99025.69;4568683;26;20352;-72
2024/04/16 04:38:50;;;;;;;;;;;;;;;8.00;60.14;99029.78;4571023;26;20344;-72
2024/04/16 04:40:51;;;;;;;;;;;;;;;7.69;60.30;99032.81;4584613;25;19935;-72
2024/04/16 04:42:51;;;;;;;;;;;;;;;7.71;60.97;99034.34;4586172;26;19935;-71
2024/04/16 04:44:52;;;;;;;;;;;;;;;7.83;60.75;99034.97;4557703;26;19928;-72
2024/04/16 04:46:56;;;;;;;;;;;;;;;7.85;60.47;99034.81;4590227;26;19919;-71
2024/04/16 04:48:56;;;;;;;;;;;;;;;7.77;60.56;99041.72;4578633;26;20367;-71
2024/04/16 04:50:57;;;;;;;;;;;;;;;7.63;61.30;99048.41;4569491;25;19928;-72
2024/04/16 04:52:57;;;;;;;;;;;;;;;7.83;60.83;99031.47;4570196;26;19939;-71
2024/04/16 04:54:59;;;;;;;;;;;;;;;7.88;60.94;99038.00;4569586;26;20259;-72
2024/04/16 04:56:59;;;;;;;;;;;;;;;7.84;60.66;99046.44;4569089;26;19977;-72
2024/04/16 04:59:00;;;;;;;;;;;;;;;8.00;60.34;99045.75;4568287;26;19975;-71
2024/04/16 05:01:01;;;;;;;;;;;;;;;7.86;60.72;99045.28;4567548;25;19934;-72
2024/04/16 05:03:02;;;;;;;;;;;;;;;7.77;61.56;99052.38;4568311;26;19943;-71
2024/04/16 05:05:02;;;;;;;;;;;;;;;7.91;61.69;99052.81;4569525;26;19996;-71
2024/04/16 05:07:02;;;;;;;;;;;;;;;7.73;62.34;99064.28;4569527;26;19938;-71
2024/04/16 05:09:03;;;;;;;;;;;;;;;7.99;62.49;99052.88;4577973;26;19927;-73
2024/04/16 05:11:03;;;;;;;;;;;;;;;7.81;62.96;99058.22;4540866;26;19928;-71
2024/04/16 05:13:04;;;;;;;;;;;;;;;7.90;63.17;99057.31;4568477;26;19927;-71
2024/04/16 05:15:04;;;;;;;;;;;;;;;7.87;63.06;99060.28;4569039;26;19931;-72
2024/04/16 05:17:08;;;;;;;;;;;;;;;7.86;63.49;99066.59;4580999;26;19939;-73
2024/04/16 05:19:08;;;;;;;;;;;;;;;7.71;63.54;99060.94;4581562;25;19928;-72
2024/04/16 05:21:10;;;;;;;;;;;;;;;7.96;63.48;99062.03;4567820;26;19935;-71
2024/04/16 05:23:10;;;;;;;;;;;;;;;7.68;63.67;99053.28;4568457;26;19927;-71
2024/04/16 05:25:10;;;;;;;;;;;;;;;7.53;63.61;99060.94;4567669;25;19934;-71
2024/04/16 05:27:10;;;;;;;;;;;;;;;7.53;63.55;99063.59;4569118;26;19927;-72
2024/04/16 05:29:11;;;;;;;;;;;;;;;7.63;62.94;99061.72;4569327;25;19927;-71
2024/04/16 05:31:11;;;;;;;;;;;;;;;7.67;63.56;99056.06;4565906;26;19996;-72
2024/04/16 05:33:12;;;;;;;;;;;;;;;7.87;62.71;99060.28;4567456;26;19996;-72
2024/04/16 05:35:12;;;;;;;;;;;;;;;8.06;62.31;99056.63;4568992;26;20342;-71
2024/04/16 05:37:12;;;;;;;;;;;;;;;7.74;63.01;99065.97;4571395;26;20320;-71
2024/04/16 05:39:14;;;;;;;;;;;;;;;7.91;62.63;99064.31;4572641;25;20325;-71
2024/04/16 05:41:15;;;;;;;;;;;;;;;8.21;62.63;99064.94;4571953;26;19935;-71
2024/04/16 05:43:15;;;;;;;;;;;;;;;7.92;63.24;99063.34;4570999;26;19959;-72
2024/04/16 05:45:16;;;;;;;;;;;;;;;7.96;62.95;99069.19;4571701;26;19942;-72
2024/04/16 05:47:16;;;;;;;;;;;;;;;8.18;62.29;99067.88;4571670;26;20395;-72
2024/04/16 05:49:16;;;;;;;;;;;;;;;8.02;61.95;99063.25;4540200;26;20010;-71
2024/04/16 05:51:17;;;;;;;;;;;;;;;8.19;61.41;99072.22;4571468;26;19976;-72
2024/04/16 05:53:17;;;;;;;;;;;;;;;8.34;61.22;99061.88;4571079;26;20312;-71
2024/04/16 05:55:18;;;;;;;;;;;;;;;8.06;61.51;99072.63;4571066;26;19967;-71
2024/04/16 05:57:18;;;;;;;;;;;;;;;8.47;60.68;99076.59;4571343;26;20357;-71
2024/04/16 05:59:19;;;;;;;;;;;;;;;8.72;59.79;99082.97;4570995;25;19928;-72
2024/04/16 06:01:19;;;;;;;;;;;;;;;8.27;60.55;99080.28;4569609;26;19928;-72
2024/04/16 06:03:20;;;;;;;;;;;;;;;8.52;60.22;99077.81;4571413;26;19957;-71
2024/04/16 06:05:20;;;;;;;;;;;;;;;8.60;59.91;99078.91;4571452;26;19927;-72
2024/04/16 06:07:20;;;;;;;;;;;;;;;8.38;60.67;99078.38;4571599;26;19938;-71
2024/04/16 06:09:21;;;;;;;;;;;;;;;8.55;60.24;99079.34;4570656;25;20414;-72
2024/04/16 06:11:21;;;;;;;;;;;;;;;8.64;59.48;99080.25;4569932;26;20364;-71
2024/04/16 06:13:21;;;;;;;;;;;;;;;8.74;59.47;99078.31;4574554;26;19933;-72
2024/04/16 06:15:22;;;;;;;;;;;;;;;8.82;59.61;99086.38;4567299;26;19927;-72
2024/04/16 06:17:22;;;;;;;;;;;;;;;9.07;58.65;99072.34;4570928;26;20317;-72
2024/04/16 06:19:22;;;;;;;;;;;;;;;9.14;58.04;99071.56;4570628;25;19927;-72
2024/04/16 06:21:22;;;;;;;;;;;;;;;8.63;58.41;99070.56;4569755;26;19939;-71
2024/04/16 06:23:23;;;;;;;;;;;;;;;8.79;58.01;99068.00;4570367;26;20351;-72
2024/04/16 06:25:23;;;;;;;;;;;;;;;8.45;59.16;99060.78;4568967;25;19992;-71
2024/04/16 06:27:24;;;;;;;;;;;;;;;8.46;58.86;99056.25;4570331;26;19939;-71
2024/04/16 06:29:24;;;;;;;;;;;;;;;8.86;58.50;99070.88;4569828;25;19927;-72
2024/04/16 06:31:24;;;;;;;;;;;;;;;8.98;57.97;99052.78;4569628;26;19972;-72
2024/04/16 06:33:25;;;;;;;;;;;;;;;9.19;57.64;99039.91;4575819;26;19927;-72
2024/04/16 06:35:25;;;;;;;;;;;;;;;8.83;57.82;99037.41;4583342;26;19928;-72
2024/04/16 06:37:25;;;;;;;;;;;;;;;8.89;57.78;99035.94;4581009;26;20534;-72
2024/04/16 06:39:25;;;;;;;;;;;;;;;8.96;57.25;99020.16;4579275;25;19932;-73
2024/04/16 06:41:26;;;;;;;;;;;;;;;8.94;57.06;99035.44;4580011;26;20359;-72
2024/04/16 06:43:26;;;;;;;;;;;;;;;9.10;56.58;99027.53;4570873;26;19988;-72
2024/04/16 06:45:33;;;;;;;;;;;;;;;9.26;56.10;99023.28;4545778;26;19939;-73
2024/04/16 06:47:33;;;;;;;;;;;;;;;9.28;56.53;99018.59;4587252;26;19935;-73
2024/04/16 06:49:33;;;;;;;;;;;;;;;9.31;56.69;99019.09;4539403;26;19928;-71
2024/04/16 06:51:34;;;;;;;;;;;;;;;9.07;56.32;99014.50;4537454;26;20466;-72
2024/04/16 06:53:34;;;;;;;;;;;;;;;9.50;54.96;99017.16;4570927;26;19927;-71
2024/04/16 06:55:34;;;;;;;;;;;;;;;9.48;55.20;99030.66;4570454;26;19938;-72
2024/04/16 06:57:35;;;;;;;;;;;;;;;9.28;54.63;99018.59;4570173;26;19963;-71
2024/04/16 06:59:36;;;;;;;;;;;;;;;9.35;54.30;99024.97;4570835;25;20352;-71
2024/04/16 07:01:36;;;;;;;;;;;;;;;9.07;54.69;99017.16;4569916;26;19935;-71
2024/04/16 07:03:36;;;;;;;;;;;;;;;9.56;53.97;99024.53;4548786;26;19973;-71
2024/04/16 07:05:37;;;;;;;;;;;;;;;9.18;53.59;99014.22;4570455;26;19935;-72
2024/04/16 07:07:37;;;;;;;;;;;;;;;9.03;54.56;99014.00;4570408;26;19928;-71
2024/04/16 07:09:37;;;;;;;;;;;;;;;9.01;54.21;99004.50;4537486;26;20010;-72
2024/04/16 07:11:38;;;;;;;;;;;;;;;9.12;54.07;99009.53;4569566;26;20309;-71
2024/04/16 07:13:43;;;;;;;;;;;;;;;9.20;53.51;99014.09;4569769;26;19942;-72
2024/04/16 07:15:44;;;;;;;;;;;;;;;9.21;53.74;99003.25;4569984;26;19928;-72
2024/04/16 07:17:44;;;;;;;;;;;;;;;9.10;53.84;99000.88;4537530;26;19953;-71
2024/04/16 07:19:45;;;;;;;;;;;;;;;9.06;53.28;99007.53;4569753;25;19927;-72
2024/04/16 07:21:45;;;;;;;;;;;;;;;9.04;53.19;99012.19;4569236;26;19939;-71
2024/04/16 07:23:46;;;;;;;;;;;;;;;9.25;52.89;99010.94;4572069;26;19935;-72
2024/04/16 07:25:47;;;;;;;;;;;;;;;9.24;52.46;99010.06;4580007;25;19935;-72
2024/04/16 07:27:47;;;;;;;;;;;;;;;9.15;52.21;99008.38;4544658;26;19928;-72
2024/04/16 07:29:48;;;;;;;;;;;;;;;9.15;52.00;99011.03;4582833;25;19934;-71
2024/04/16 07:31:49;;;;;;;;;;;;;;;9.51;50.90;99008.16;4578044;26;19927;-71
2024/04/16 07:33:49;;;;;;;;;;;;;;;9.32;51.45;99001.28;4575531;26;19953;-72
2024/04/16 07:35:51;;;;;;;;;;;;;;;9.33;51.88;98994.94;4542181;26;20281;-72
2024/04/16 07:37:51;;;;;;;;;;;;;;;9.44;51.29;98991.97;4570993;26;19927;-72
2024/04/16 07:39:51;;;;;;;;;;;;;;;9.59;51.32;98978.81;4538434;26;19952;-70
2024/04/16 07:41:52;;;;;;;;;;;;;;;9.79;50.41;98984.69;4572931;26;19959;-71
2024/04/16 07:43:52;;;;;;;;;;;;;;;9.83;50.03;98990.53;4570436;26;19971;-70
2024/04/16 07:45:52;;;;;;;;;;;;;;;9.91;49.91;98992.38;4576405;26;20581;-71
2024/04/16 07:47:53;;;;;;;;;;;;;;;10.18;49.68;98982.34;4541793;26;19928;-71
2024/04/16 07:49:53;;;;;;;;;;;;;;;10.57;49.14;98966.44;4572497;25;19939;-71
2024/04/16 07:51:53;;;;;;;;;;;;;;;10.34;48.64;98962.81;4569197;26;20368;-71
2024/04/16 07:53:53;;;;;;;;;;;;;;;10.15;48.72;98964.84;4577225;26;19959;-71
2024/04/16 07:55:54;;;;;;;;;;;;;;;9.98;49.21;98972.84;4578494;26;19996;-71
2024/04/16 07:57:55;;;;;;;;;;;;;;;10.31;48.62;98963.97;4589322;25;20370;-73
2024/04/16 07:59:56;;;;;;;;;;;;;;;10.23;49.13;98954.13;4607841;25;19927;-72
2024/04/16 08:01:56;;;;;;;;;;;;;;;10.25;49.13;98954.78;4610480;25;19934;-71
2024/04/16 08:03:56;;;;;;;;;;;;;;;10.22;49.34;98951.63;4613488;25;20380;-71
2024/04/16 08:05:57;;;;;;;;;;;;;;;10.36;49.08;98948.28;4614789;25;19947;-73
2024/04/16 08:07:57;;;;;;;;;;;;;;;10.04;50.13;98954.50;4611590;25;20393;-72
2024/04/16 08:09:59;;;;;;;;;;;;;;;10.02;50.03;98945.81;4608678;25;20347;-72
2024/04/16 08:11:59;;;;;;;;;;;;;;;-147.60;100.00;61589.38;4610220;25;20247;-71
2024/04/16 08:13:59;;;;;;;;;;;;;;;12.94;nan;98935.56;4610029;25;19927;-72
2024/04/16 08:16:00;;;;;;;;;;;;;;;12.00;nan;98940.41;4617448;25;19927;-71
2024/04/16 08:18:00;;;;;;;;;;;;;;;12.26;nan;98949.91;4612193;25;19927;-71
2024/04/16 08:20:00;;;;;;;;;;;;;;;11.81;nan;98943.53;4603657;25;19975;-75
2024/04/16 08:22:01;;;;;;;;;;;;;;;11.82;nan;98958.59;4605308;25;20057;-72
2024/04/16 08:24:01;;;;;;;;;;;;;;;11.61;nan;98956.59;4606916;25;19927;-72
2024/04/16 08:26:02;;;;;;;;;;;;;;;11.21;nan;98967.38;4604509;25;20252;-73
2024/04/16 08:28:16;;;;;;;;;;;;;;;11.17;nan;98984.78;4610838;25;19927;-72
2024/04/16 08:30:16;;;;;;;;;;;;;;;11.68;nan;98985.16;4608911;25;19939;-72
2024/04/16 08:32:24;;;;;;;;;;;;;;;11.49;nan;98975.72;4608096;25;19927;-73
2024/04/16 08:34:24;;;;;;;;;;;;;;;11.78;nan;98986.75;4612258;25;19926;-71
2024/04/16 08:36:25;;;;;;;;;;;;;;;11.45;nan;98978.94;4601751;25;19927;-71
2024/04/16 08:38:25;;;;;;;;;;;;;;;12.25;nan;98969.66;4600663;25;19927;-71
2024/04/16 08:40:25;;;;;;;;;;;;;;;11.33;nan;98974.00;4599378;25;19927;-72
2024/04/16 08:42:26;;;;;;;;;;;;;;;11.52;nan;98971.88;4600305;25;19930;-71
2024/04/16 08:44:27;;;;;;;;;;;;;;;10.92;nan;98984.88;4600036;25;19926;-72
2024/04/16 08:46:28;;;;;;;;;;;;;;;11.00;nan;98976.00;4568197;26;20317;-71
2024/04/16 08:48:29;;;;;;;;;;;;;;;10.75;nan;98968.91;4581331;25;20372;-71
2024/04/16 08:50:29;;;;;;;;;;;;;;;11.07;nan;98972.44;4600199;25;19934;-72
2024/04/16 08:52:30;;;;;;;;;;;;;;;11.38;nan;98979.66;4566889;26;20553;-72
2024/04/16 08:54:31;;;;;;;;;;;;;;;11.23;nan;98966.19;4600628;25;19931;-72
2024/04/16 08:56:33;;;;;;;;;;;;;;;10.84;nan;98976.91;4599896;25;19960;-72
2024/04/16 08:58:34;;;;;;;;;;;;;;;10.65;nan;98965.59;4566875;26;19934;-71
2024/04/16 09:00:34;;;;;;;;;;;;;;;11.30;nan;98985.03;4567070;26;19927;-72
2024/04/16 09:02:35;;;;;;;;;;;;;;;11.22;nan;98975.22;4598478;25;19934;-71
2024/04/16 09:04:36;;;;;;;;;;;;;;;11.81;nan;98962.28;4599348;25;19934;-71
2024/04/16 09:06:37;;;;;;;;;;;;;;;11.80;nan;98957.97;4598786;25;20054;-71
2024/04/16 09:08:38;;;;;;;;;;;;;;;11.80;nan;98949.94;4599075;25;20013;-71
2024/04/16 09:10:39;;;;;;;;;;;;;;;12.37;nan;98958.50;4598354;25;19961;-71
2024/04/16 09:12:40;;;;;;;;;;;;;;;12.11;nan;98959.72;4565657;26;20435;-72
2024/04/16 09:14:41;;;;;;;;;;;;;;;11.86;nan;98954.56;4566248;26;19939;-72
2024/04/16 09:16:41;;;;;;;;;;;;;;;12.26;nan;98957.94;4598706;25;19934;-72
2024/04/16 09:18:42;;;;;;;;;;;;;;;12.36;nan;98948.78;4599159;25;19931;-71
2024/04/16 09:20:45;;;;;;;;;;;;;;;12.24;nan;98954.59;4598031;25;20411;-72
2024/04/16 09:22:49;;;;;;;;;;;;;;;12.73;nan;98963.13;4598318;25;19927;-71
2024/04/16 09:24:49;;;;;;;;;;;;;;;12.80;nan;98946.09;4598438;25;19955;-72
2024/04/16 09:26:50;;;;;;;;;;;;;;;12.90;nan;98935.09;4599023;25;20251;-71
2024/04/16 09:28:50;;;;;;;;;;;;;;;12.47;nan;98945.63;4598413;25;19934;-71
2024/04/16 09:30:56;;;;;;;;;;;;;;;12.38;nan;98942.22;4598399;25;20562;-72
2024/04/16 09:33:00;;;;;;;;;;;;;;;12.41;nan;98944.56;4564326;26;19939;-72
2024/04/16 09:35:00;;;;;;;;;;;;;;;12.31;nan;98931.41;4598551;25;20389;-71
2024/04/16 09:37:01;;;;;;;;;;;;;;;12.36;nan;98916.63;4598628;25;19955;-71
2024/04/16 09:39:03;;;;;;;;;;;;;;;12.93;nan;98910.59;4598844;25;20292;-72
2024/04/16 09:41:03;;;;;;;;;;;;;;;12.86;nan;98916.88;4597538;25;19931;-71
2024/04/16 09:43:04;;;;;;;;;;;;;;;14.19;nan;98906.63;4598226;25;19931;-71
2024/04/16 09:45:06;;;;;;;;;;;;;;;14.01;nan;98906.28;4598809;25;19934;-72
2024/04/16 09:47:06;;;;;;;;;;;;;;;13.72;nan;98911.66;4599079;25;20080;-72
2024/04/16 09:49:08;;;;;;;;;;;;;;;13.80;nan;98907.97;4598391;25;20494;-71
2024/04/16 09:51:08;;;;;;;;;;;;;;;12.91;nan;98915.31;4597438;25;20668;-71
2024/04/16 09:53:09;;;;;;;;;;;;;;;12.77;nan;98932.25;4598610;25;19931;-72
2024/04/16 09:55:10;;;;;;;;;;;;;;;13.29;nan;98922.31;4598162;25;19931;-71
2024/04/16 09:57:11;;;;;;;;;;;;;;;12.26;nan;98909.69;4598830;25;19929;-71
2024/04/16 09:59:12;;;;;;;;;;;;;;;12.15;nan;98937.75;4598335;25;20459;-71
2024/04/16 10:01:13;;;;;;;;;;;;;;;12.20;nan;98939.88;4597903;25;19927;-71
2024/04/16 10:03:14;;;;;;;;;;;;;;;12.16;nan;98950.13;4598904;25;20047;-71
2024/04/16 10:05:15;;;;;;;;;;;;;;;11.94;nan;98932.25;4598711;25;19942;-72
2024/04/16 10:07:16;;;;;;;;;;;;;;;12.12;nan;98943.50;4599350;25;20251;-74
2024/04/16 10:09:19;;;;;;;;;;;;;;;11.99;nan;98944.13;4602813;25;19927;-72
2024/04/16 10:11:20;;;;;;;;;;;;;;;11.63;nan;98944.69;4602353;25;19934;-71
2024/04/16 10:13:20;;;;;;;;;;;;;;;12.20;nan;98958.63;4601991;25;19927;-73
2024/04/16 10:15:21;;;;;;;;;;;;;;;11.90;nan;98944.31;4566034;26;19927;-74
2024/04/16 10:17:21;;;;;;;;;;;;;;;11.48;nan;98931.25;4598143;25;19934;-72
2024/04/16 10:19:21;;;;;;;;;;;;;;;11.09;nan;98942.88;4598190;25;19927;-74
2024/04/16 10:21:23;;;;;;;;;;;;;;;10.84;nan;98955.50;4597899;25;19959;-72
2024/04/16 10:23:23;;;;;;;;;;;;;;;11.10;nan;98933.00;4566103;26;19980;-72
2024/04/16 10:25:27;;;;;;;;;;;;;;;10.80;nan;98925.63;4600776;25;20343;-72
2024/04/16 10:27:30;;;;;;;;;;;;;;;11.02;nan;98928.50;4601881;25;19934;-71
2024/04/16 10:29:36;;;;;;;;;;;;;;;10.59;nan;98928.84;4569363;26;19927;-72
2024/04/16 10:31:38;;;;;;;;;;;;;;;10.90;nan;98926.25;4600341;25;20058;-71
2024/04/16 10:33:39;;;;;;;;;;;;;;;10.49;nan;98937.06;4600775;25;19995;-73
2024/04/16 10:35:44;;;;;;;;;;;;;;;10.64;nan;98920.31;4602098;25;19927;-71
2024/04/16 10:37:50;;;;;;;;;;;;;;;10.83;nan;98916.41;4612444;25;19918;-71
2024/04/16 10:39:57;;;;;;;;;;;;;;;10.93;nan;98930.41;4569696;26;19931;-73